sensor_id;sensor_type;location;lat;lon;timestamp;temperature;humidity
29731;DHT22;16639;51.488;0.152;2023-04-03T00:00:59;6.70;99.90
29731;DHT22;16639;51.488;0.152;2023-04-03T00:03:27;6.90;99.90
29731;DHT22;16639;51.488;0.152;2023-04-03T00:05:55;6.80;99.90
29731;DHT22;16639;51.488;0.152;2023-04-03T00:08:22;6.90;99.90
29731;DHT22;16639;51.488;0.152;2023-04-03T00:10:50;7.00;99.90
29731;DHT22;16639;51.488;0.152;2023-04-03T00:13:17;6.90;99.90
29731;DHT22;16639;51.488;0.152;2023-04-03T00:15:45;6.90;99.90
29731;DHT22;16639;51.488;0.152;2023-04-03T00:18:12;6.90;99.90
29731;DHT22;16639;51.488;0.152;2023-04-03T00:20:40;6.80;99.90
29731;DHT22;16639;51.488;0.152;2023-04-03T00:23:07;6.80;99.90
29731;DHT22;16639;51.488;0.152;2023-04-03T00:25:34;6.70;99.90
29731;DHT22;16639;51.488;0.152;2023-04-03T00:28:03;6.60;99.90
29731;DHT22;16639;51.488;0.152;2023-04-03T00:30:31;6.70;99.90
29731;DHT22;16639;51.488;0.152;2023-04-03T00:32:58;6.60;99.90
29731;DHT22;16639;51.488;0.152;2023-04-03T00:35:27;6.60;99.90
29731;DHT22;16639;51.488;0.152;2023-04-03T00:37:55;6.60;99.90
29731;DHT22;16639;51.488;0.152;2023-04-03T00:40:24;6.60;99.90
29731;DHT22;16639;51.488;0.152;2023-04-03T00:42:56;6.60;99.90
29731;DHT22;16639;51.488;0.152;2023-04-03T00:45:36;6.50;99.90
29731;DHT22;16639;51.488;0.152;2023-04-03T00:48:06;6.60;99.90
29731;DHT22;16639;51.488;0.152;2023-04-03T00:50:37;6.50;99.90
29731;DHT22;16639;51.488;0.152;2023-04-03T00:53:06;6.40;99.90
29731;DHT22;16639;51.488;0.152;2023-04-03T00:55:35;6.60;99.90
29731;DHT22;16639;51.488;0.152;2023-04-03T00:58:05;6.50;99.90
29731;DHT22;16639;51.488;0.152;2023-04-03T01:00:37;6.40;99.90
29731;DHT22;16639;51.488;0.152;2023-04-03T01:03:06;6.40;99.90
29731;DHT22;16639;51.488;0.152;2023-04-03T01:05:33;6.40;99.90
29731;DHT22;16639;51.488;0.152;2023-04-03T01:08:01;6.50;99.90
29731;DHT22;16639;51.488;0.152;2023-04-03T01:10:29;6.40;99.90
29731;DHT22;16639;51.488;0.152;2023-04-03T01:12:57;6.40;99.90
29731;DHT22;16639;51.488;0.152;2023-04-03T01:15:27;6.50;99.90
29731;DHT22;16639;51.488;0.152;2023-04-03T01:17:58;6.50;99.90
29731;DHT22;16639;51.488;0.152;2023-04-03T01:25:40;6.50;99.90
29731;DHT22;16639;51.488;0.152;2023-04-03T01:28:12;6.50;99.90
29731;DHT22;16639;51.488;0.152;2023-04-03T01:31:06;6.50;99.90
29731;DHT22;16639;51.488;0.152;2023-04-03T01:33:38;6.50;99.90
29731;DHT22;16639;51.488;0.152;2023-04-03T01:36:06;6.50;99.90
29731;DHT22;16639;51.488;0.152;2023-04-03T01:38:34;6.40;99.90
29731;DHT22;16639;51.488;0.152;2023-04-03T01:41:01;6.40;99.90
29731;DHT22;16639;51.488;0.152;2023-04-03T01:43:29;6.40;99.90
29731;DHT22;16639;51.488;0.152;2023-04-03T01:45:56;6.30;99.90
29731;DHT22;16639;51.488;0.152;2023-04-03T01:48:24;6.30;99.90
29731;DHT22;16639;51.488;0.152;2023-04-03T01:50:51;6.30;99.90
29731;DHT22;16639;51.488;0.152;2023-04-03T01:53:18;5.60;99.90
29731;DHT22;16639;51.488;0.152;2023-04-03T01:55:46;6.20;99.90
29731;DHT22;16639;51.488;0.152;2023-04-03T01:58:13;6.70;99.90
29731;DHT22;16639;51.488;0.152;2023-04-03T02:00:40;6.10;99.90
29731;DHT22;16639;51.488;0.152;2023-04-03T02:03:08;6.20;99.90
29731;DHT22;16639;51.488;0.152;2023-04-03T02:05:35;6.10;99.90
29731;DHT22;16639;51.488;0.152;2023-04-03T02:08:03;6.10;99.90
29731;DHT22;16639;51.488;0.152;2023-04-03T02:10:30;6.00;99.90
29731;DHT22;16639;51.488;0.152;2023-04-03T02:12:58;6.00;99.90
29731;DHT22;16639;51.488;0.152;2023-04-03T02:15:25;6.50;99.90
29731;DHT22;16639;51.488;0.152;2023-04-03T02:17:53;6.00;99.90
29731;DHT22;16639;51.488;0.152;2023-04-03T02:20:21;6.00;99.90
29731;DHT22;16639;51.488;0.152;2023-04-03T02:22:48;5.90;99.90
29731;DHT22;16639;51.488;0.152;2023-04-03T02:25:16;6.50;99.90
29731;DHT22;16639;51.488;0.152;2023-04-03T02:27:44;6.00;99.90
29731;DHT22;16639;51.488;0.152;2023-04-03T02:30:13;6.00;99.90
29731;DHT22;16639;51.488;0.152;2023-04-03T02:32:42;6.00;99.90
29731;DHT22;16639;51.488;0.152;2023-04-03T02:35:11;6.00;99.90
29731;DHT22;16639;51.488;0.152;2023-04-03T02:37:39;5.90;99.90
29731;DHT22;16639;51.488;0.152;2023-04-03T02:40:07;5.90;99.90
29731;DHT22;16639;51.488;0.152;2023-04-03T02:42:35;5.90;99.90
29731;DHT22;16639;51.488;0.152;2023-04-03T02:45:03;6.80;99.90
29731;DHT22;16639;51.488;0.152;2023-04-03T02:47:30;5.70;99.90
29731;DHT22;16639;51.488;0.152;2023-04-03T02:49:58;5.60;99.90
29731;DHT22;16639;51.488;0.152;2023-04-03T02:52:25;6.30;99.90
29731;DHT22;16639;51.488;0.152;2023-04-03T02:54:53;5.40;99.90
29731;DHT22;16639;51.488;0.152;2023-04-03T02:57:20;5.40;99.90
29731;DHT22;16639;51.488;0.152;2023-04-03T02:59:48;5.40;99.90
29731;DHT22;16639;51.488;0.152;2023-04-03T03:02:15;5.40;99.90
29731;DHT22;16639;51.488;0.152;2023-04-03T03:04:42;5.30;99.90
29731;DHT22;16639;51.488;0.152;2023-04-03T03:07:10;5.30;99.90
29731;DHT22;16639;51.488;0.152;2023-04-03T03:09:37;5.30;99.90
29731;DHT22;16639;51.488;0.152;2023-04-03T03:12:05;5.30;99.90
29731;DHT22;16639;51.488;0.152;2023-04-03T03:14:32;5.30;99.90
29731;DHT22;16639;51.488;0.152;2023-04-03T03:16:59;5.30;99.90
29731;DHT22;16639;51.488;0.152;2023-04-03T03:19:27;5.30;99.90
29731;DHT22;16639;51.488;0.152;2023-04-03T03:21:54;5.30;99.90
29731;DHT22;16639;51.488;0.152;2023-04-03T03:24:22;5.30;99.90
29731;DHT22;16639;51.488;0.152;2023-04-03T03:26:49;5.20;99.90
29731;DHT22;16639;51.488;0.152;2023-04-03T03:29:16;5.10;99.90
29731;DHT22;16639;51.488;0.152;2023-04-03T03:31:44;5.20;99.90
29731;DHT22;16639;51.488;0.152;2023-04-03T03:34:11;5.40;99.90
29731;DHT22;16639;51.488;0.152;2023-04-03T03:36:39;5.30;99.90
29731;DHT22;16639;51.488;0.152;2023-04-03T03:39:06;5.30;99.90
29731;DHT22;16639;51.488;0.152;2023-04-03T03:41:34;5.00;99.90
29731;DHT22;16639;51.488;0.152;2023-04-03T03:44:01;5.30;99.90
29731;DHT22;16639;51.488;0.152;2023-04-03T03:46:28;5.40;99.90
29731;DHT22;16639;51.488;0.152;2023-04-03T03:48:56;5.40;99.90
29731;DHT22;16639;51.488;0.152;2023-04-03T03:51:23;5.40;99.90
29731;DHT22;16639;51.488;0.152;2023-04-03T03:53:51;6.10;99.90
29731;DHT22;16639;51.488;0.152;2023-04-03T03:56:18;5.40;99.90
29731;DHT22;16639;51.488;0.152;2023-04-03T03:58:47;5.40;99.90
29731;DHT22;16639;51.488;0.152;2023-04-03T04:01:15;5.50;99.90
29731;DHT22;16639;51.488;0.152;2023-04-03T04:03:43;5.10;99.90
29731;DHT22;16639;51.488;0.152;2023-04-03T04:06:11;5.40;99.90
29731;DHT22;16639;51.488;0.152;2023-04-03T04:08:39;5.40;99.90
29731;DHT22;16639;51.488;0.152;2023-04-03T04:11:07;6.30;99.90
29731;DHT22;16639;51.488;0.152;2023-04-03T04:13:34;5.30;99.90
29731;DHT22;16639;51.488;0.152;2023-04-03T04:16:02;4.80;99.90
29731;DHT22;16639;51.488;0.152;2023-04-03T04:18:29;5.30;99.90
29731;DHT22;16639;51.488;0.152;2023-04-03T04:20:58;5.30;99.90
29731;DHT22;16639;51.488;0.152;2023-04-03T04:23:25;5.20;99.90
29731;DHT22;16639;51.488;0.152;2023-04-03T04:25:53;5.20;99.90
29731;DHT22;16639;51.488;0.152;2023-04-03T04:28:20;5.20;99.90
29731;DHT22;16639;51.488;0.152;2023-04-03T04:30:48;4.60;99.90
29731;DHT22;16639;51.488;0.152;2023-04-03T04:33:15;5.40;99.90
29731;DHT22;16639;51.488;0.152;2023-04-03T04:35:43;5.20;99.90
29731;DHT22;16639;51.488;0.152;2023-04-03T04:38:11;5.20;99.90
29731;DHT22;16639;51.488;0.152;2023-04-03T04:40:38;5.20;99.90
29731;DHT22;16639;51.488;0.152;2023-04-03T04:43:06;5.20;99.90
29731;DHT22;16639;51.488;0.152;2023-04-03T04:45:33;5.20;99.90
29731;DHT22;16639;51.488;0.152;2023-04-03T04:48:01;5.30;99.90
29731;DHT22;16639;51.488;0.152;2023-04-03T04:50:28;5.20;99.90
29731;DHT22;16639;51.488;0.152;2023-04-03T04:52:56;4.30;99.90
29731;DHT22;16639;51.488;0.152;2023-04-03T04:55:23;5.20;99.90
29731;DHT22;16639;51.488;0.152;2023-04-03T04:57:51;5.20;99.90
29731;DHT22;16639;51.488;0.152;2023-04-03T05:00:19;5.20;99.90
29731;DHT22;16639;51.488;0.152;2023-04-03T05:02:46;5.20;99.90
29731;DHT22;16639;51.488;0.152;2023-04-03T05:05:14;5.20;99.90
29731;DHT22;16639;51.488;0.152;2023-04-03T05:07:41;5.20;99.90
29731;DHT22;16639;51.488;0.152;2023-04-03T05:10:09;5.30;99.90
29731;DHT22;16639;51.488;0.152;2023-04-03T05:12:36;6.10;99.90
29731;DHT22;16639;51.488;0.152;2023-04-03T05:15:04;5.30;99.90
29731;DHT22;16639;51.488;0.152;2023-04-03T05:17:32;5.30;99.90
29731;DHT22;16639;51.488;0.152;2023-04-03T05:19:59;5.30;99.90
29731;DHT22;16639;51.488;0.152;2023-04-03T05:22:27;6.20;99.90
29731;DHT22;16639;51.488;0.152;2023-04-03T05:24:54;5.40;99.90
29731;DHT22;16639;51.488;0.152;2023-04-03T05:27:21;5.40;99.90
29731;DHT22;16639;51.488;0.152;2023-04-03T05:29:52;5.40;99.90
29731;DHT22;16639;51.488;0.152;2023-04-03T05:32:20;5.60;99.90
29731;DHT22;16639;51.488;0.152;2023-04-03T05:34:48;5.40;99.90
29731;DHT22;16639;51.488;0.152;2023-04-03T05:37:15;5.40;99.90
29731;DHT22;16639;51.488;0.152;2023-04-03T05:39:43;5.50;99.90
29731;DHT22;16639;51.488;0.152;2023-04-03T05:42:10;5.50;99.90
29731;DHT22;16639;51.488;0.152;2023-04-03T05:44:38;5.50;99.90
29731;DHT22;16639;51.488;0.152;2023-04-03T05:47:06;5.50;99.90
29731;DHT22;16639;51.488;0.152;2023-04-03T05:49:33;6.10;99.90
29731;DHT22;16639;51.488;0.152;2023-04-03T05:52:01;5.60;99.90
29731;DHT22;16639;51.488;0.152;2023-04-03T05:54:29;5.60;99.90
29731;DHT22;16639;51.488;0.152;2023-04-03T05:56:57;5.70;99.90
29731;DHT22;16639;51.488;0.152;2023-04-03T05:59:25;5.70;99.90
29731;DHT22;16639;51.488;0.152;2023-04-03T06:01:52;5.70;99.90
29731;DHT22;16639;51.488;0.152;2023-04-03T06:04:20;5.70;99.90
29731;DHT22;16639;51.488;0.152;2023-04-03T06:06:49;5.80;99.90
29731;DHT22;16639;51.488;0.152;2023-04-03T06:09:20;5.80;99.90
29731;DHT22;16639;51.488;0.152;2023-04-03T06:11:48;5.80;99.90
29731;DHT22;16639;51.488;0.152;2023-04-03T06:14:15;5.80;99.90
29731;DHT22;16639;51.488;0.152;2023-04-03T06:16:43;5.80;99.90
29731;DHT22;16639;51.488;0.152;2023-04-03T06:19:11;5.80;99.90
29731;DHT22;16639;51.488;0.152;2023-04-03T06:21:40;5.50;99.90
29731;DHT22;16639;51.488;0.152;2023-04-03T06:24:09;5.90;99.90
29731;DHT22;16639;51.488;0.152;2023-04-03T06:26:36;5.90;99.90
29731;DHT22;16639;51.488;0.152;2023-04-03T06:29:04;5.80;99.90
29731;DHT22;16639;51.488;0.152;2023-04-03T06:31:31;5.80;99.90
29731;DHT22;16639;51.488;0.152;2023-04-03T06:33:59;5.20;99.90
29731;DHT22;16639;51.488;0.152;2023-04-03T06:36:26;6.10;99.90
29731;DHT22;16639;51.488;0.152;2023-04-03T06:38:54;5.90;99.90
29731;DHT22;16639;51.488;0.152;2023-04-03T06:41:22;6.30;99.90
29731;DHT22;16639;51.488;0.152;2023-04-03T06:43:49;6.20;99.90
29731;DHT22;16639;51.488;0.152;2023-04-03T06:46:19;6.10;99.90
29731;DHT22;16639;51.488;0.152;2023-04-03T06:48:46;6.10;99.90
29731;DHT22;16639;51.488;0.152;2023-04-03T06:51:28;6.20;99.90
29731;DHT22;16639;51.488;0.152;2023-04-03T06:53:59;6.20;99.90
29731;DHT22;16639;51.488;0.152;2023-04-03T06:56:28;6.30;99.90
29731;DHT22;16639;51.488;0.152;2023-04-03T06:58:56;6.40;99.90
29731;DHT22;16639;51.488;0.152;2023-04-03T07:01:26;6.30;99.90
29731;DHT22;16639;51.488;0.152;2023-04-03T07:03:55;6.40;99.90
29731;DHT22;16639;51.488;0.152;2023-04-03T07:06:23;6.50;99.90
29731;DHT22;16639;51.488;0.152;2023-04-03T07:08:54;6.40;99.90
29731;DHT22;16639;51.488;0.152;2023-04-03T07:11:22;6.50;99.90
29731;DHT22;16639;51.488;0.152;2023-04-03T07:13:50;6.60;99.90
29731;DHT22;16639;51.488;0.152;2023-04-03T07:16:17;6.60;99.90
29731;DHT22;16639;51.488;0.152;2023-04-03T07:18:46;6.70;99.90
29731;DHT22;16639;51.488;0.152;2023-04-03T07:21:13;6.70;99.90
29731;DHT22;16639;51.488;0.152;2023-04-03T07:23:41;6.70;99.90
29731;DHT22;16639;51.488;0.152;2023-04-03T07:26:09;6.80;99.90
29731;DHT22;16639;51.488;0.152;2023-04-03T07:28:36;6.80;99.90
29731;DHT22;16639;51.488;0.152;2023-04-03T07:31:10;6.70;99.90
29731;DHT22;16639;51.488;0.152;2023-04-03T07:33:41;6.70;99.90
29731;DHT22;16639;51.488;0.152;2023-04-03T07:36:09;6.90;99.90
29731;DHT22;16639;51.488;0.152;2023-04-03T07:38:37;7.00;99.90
29731;DHT22;16639;51.488;0.152;2023-04-03T07:41:05;7.00;99.90
29731;DHT22;16639;51.488;0.152;2023-04-03T07:43:32;7.00;99.90
29731;DHT22;16639;51.488;0.152;2023-04-03T07:46:01;7.00;99.90
29731;DHT22;16639;51.488;0.152;2023-04-03T07:48:32;7.40;99.90
29731;DHT22;16639;51.488;0.152;2023-04-03T07:51:01;7.10;99.90
29731;DHT22;16639;51.488;0.152;2023-04-03T07:53:29;7.10;99.90
29731;DHT22;16639;51.488;0.152;2023-04-03T07:55:57;7.00;99.90
29731;DHT22;16639;51.488;0.152;2023-04-03T07:58:25;7.10;99.90
29731;DHT22;16639;51.488;0.152;2023-04-03T08:00:52;7.20;99.90
29731;DHT22;16639;51.488;0.152;2023-04-03T08:03:20;7.20;99.90
29731;DHT22;16639;51.488;0.152;2023-04-03T08:05:49;7.30;99.90
29731;DHT22;16639;51.488;0.152;2023-04-03T08:08:22;7.40;99.90
29731;DHT22;16639;51.488;0.152;2023-04-03T08:10:51;7.50;99.90
29731;DHT22;16639;51.488;0.152;2023-04-03T08:13:20;7.70;99.90
29731;DHT22;16639;51.488;0.152;2023-04-03T08:15:48;7.60;99.90
29731;DHT22;16639;51.488;0.152;2023-04-03T08:18:16;7.60;99.90
29731;DHT22;16639;51.488;0.152;2023-04-03T08:20:43;7.60;99.90
29731;DHT22;16639;51.488;0.152;2023-04-03T08:23:11;7.60;99.90
29731;DHT22;16639;51.488;0.152;2023-04-03T08:25:40;7.60;99.90
29731;DHT22;16639;51.488;0.152;2023-04-03T08:28:08;7.60;99.90
29731;DHT22;16639;51.488;0.152;2023-04-03T08:30:39;7.60;99.90
29731;DHT22;16639;51.488;0.152;2023-04-03T08:33:08;7.70;99.90
29731;DHT22;16639;51.488;0.152;2023-04-03T08:35:40;7.80;99.90
29731;DHT22;16639;51.488;0.152;2023-04-03T08:38:09;7.90;99.90
29731;DHT22;16639;51.488;0.152;2023-04-03T08:40:38;7.90;99.90
29731;DHT22;16639;51.488;0.152;2023-04-03T08:43:30;7.90;99.90
29731;DHT22;16639;51.488;0.152;2023-04-03T08:46:05;7.90;99.90
29731;DHT22;16639;51.488;0.152;2023-04-03T08:48:36;8.00;99.90
29731;DHT22;16639;51.488;0.152;2023-04-03T08:51:17;8.60;99.90
29731;DHT22;16639;51.488;0.152;2023-04-03T08:53:59;8.20;99.90
29731;DHT22;16639;51.488;0.152;2023-04-03T08:56:30;8.20;99.90
29731;DHT22;16639;51.488;0.152;2023-04-03T08:59:00;8.30;99.90
29731;DHT22;16639;51.488;0.152;2023-04-03T09:01:39;8.50;99.90
29731;DHT22;16639;51.488;0.152;2023-04-03T09:04:11;8.70;99.90
29731;DHT22;16639;51.488;0.152;2023-04-03T09:06:39;8.70;99.90
29731;DHT22;16639;51.488;0.152;2023-04-03T09:09:14;8.80;99.90
29731;DHT22;16639;51.488;0.152;2023-04-03T09:12:06;8.90;99.90
29731;DHT22;16639;51.488;0.152;2023-04-03T09:26:27;9.60;99.90
29731;DHT22;16639;51.488;0.152;2023-04-03T09:28:59;9.40;99.90
29731;DHT22;16639;51.488;0.152;2023-04-03T09:31:35;9.30;99.90
29731;DHT22;16639;51.488;0.152;2023-04-03T09:34:23;9.40;99.90
29731;DHT22;16639;51.488;0.152;2023-04-03T09:36:53;9.30;99.90
29731;DHT22;16639;51.488;0.152;2023-04-03T09:39:23;9.30;99.90
29731;DHT22;16639;51.488;0.152;2023-04-03T09:42:16;9.30;99.90
29731;DHT22;16639;51.488;0.152;2023-04-03T09:44:55;9.40;99.90
29731;DHT22;16639;51.488;0.152;2023-04-03T09:47:29;9.50;99.90
29731;DHT22;16639;51.488;0.152;2023-04-03T09:52:40;9.60;99.90
29731;DHT22;16639;51.488;0.152;2023-04-03T09:57:47;9.60;99.90
29731;DHT22;16639;51.488;0.152;2023-04-03T10:03:01;9.70;99.90
29731;DHT22;16639;51.488;0.152;2023-04-03T10:05:42;9.50;99.90
29731;DHT22;16639;51.488;0.152;2023-04-03T10:10:48;9.70;99.90
29731;DHT22;16639;51.488;0.152;2023-04-03T10:13:35;9.70;99.90
29731;DHT22;16639;51.488;0.152;2023-04-03T10:16:20;9.70;99.90
29731;DHT22;16639;51.488;0.152;2023-04-03T10:19:44;9.60;99.90
29731;DHT22;16639;51.488;0.152;2023-04-03T10:27:44;9.60;99.90
29731;DHT22;16639;51.488;0.152;2023-04-03T10:46:34;9.60;99.90
29731;DHT22;16639;51.488;0.152;2023-04-03T10:51:54;9.70;99.90
29731;DHT22;16639;51.488;0.152;2023-04-03T10:54:36;9.70;99.90
29731;DHT22;16639;51.488;0.152;2023-04-03T10:57:08;9.60;99.90
29731;DHT22;16639;51.488;0.152;2023-04-03T10:59:55;9.60;99.90
29731;DHT22;16639;51.488;0.152;2023-04-03T11:02:44;9.60;99.90
29731;DHT22;16639;51.488;0.152;2023-04-03T11:05:26;9.50;99.90
29731;DHT22;16639;51.488;0.152;2023-04-03T11:07:57;9.50;99.90
29731;DHT22;16639;51.488;0.152;2023-04-03T11:10:50;9.50;99.90
29731;DHT22;16639;51.488;0.152;2023-04-03T11:13:34;9.50;99.90
29731;DHT22;16639;51.488;0.152;2023-04-03T11:16:04;9.60;99.90
29731;DHT22;16639;51.488;0.152;2023-04-03T11:21:21;9.60;99.90
29731;DHT22;16639;51.488;0.152;2023-04-03T11:23:53;9.70;99.90
29731;DHT22;16639;51.488;0.152;2023-04-03T11:26:26;9.70;99.90
29731;DHT22;16639;51.488;0.152;2023-04-03T11:29:02;10.20;99.90
29731;DHT22;16639;51.488;0.152;2023-04-03T11:32:05;8.90;99.90
29731;DHT22;16639;51.488;0.152;2023-04-03T11:34:48;9.70;99.90
29731;DHT22;16639;51.488;0.152;2023-04-03T11:37:35;9.80;99.90
29731;DHT22;16639;51.488;0.152;2023-04-03T11:40:06;9.80;99.90
29731;DHT22;16639;51.488;0.152;2023-04-03T11:42:39;9.80;99.90
29731;DHT22;16639;51.488;0.152;2023-04-03T11:48:41;9.80;99.90
29731;DHT22;16639;51.488;0.152;2023-04-03T11:50:56;9.70;99.90
29731;DHT22;16639;51.488;0.152;2023-04-03T11:53:36;9.80;99.90
29731;DHT22;16639;51.488;0.152;2023-04-03T12:01:57;9.80;99.90
29731;DHT22;16639;51.488;0.152;2023-04-03T12:04:27;9.80;99.90
29731;DHT22;16639;51.488;0.152;2023-04-03T12:07:14;9.80;99.90
29731;DHT22;16639;51.488;0.152;2023-04-03T12:12:30;10.20;99.90
29731;DHT22;16639;51.488;0.152;2023-04-03T12:15:25;9.80;99.90
29731;DHT22;16639;51.488;0.152;2023-04-03T12:17:54;9.80;99.90
29731;DHT22;16639;51.488;0.152;2023-04-03T12:20:57;9.80;99.90
29731;DHT22;16639;51.488;0.152;2023-04-03T12:23:28;9.80;99.90
29731;DHT22;16639;51.488;0.152;2023-04-03T12:26:06;9.90;99.90
29731;DHT22;16639;51.488;0.152;2023-04-03T12:28:48;9.80;99.90
29731;DHT22;16639;51.488;0.152;2023-04-03T12:31:17;9.80;99.90
29731;DHT22;16639;51.488;0.152;2023-04-03T12:34:09;9.80;99.90
29731;DHT22;16639;51.488;0.152;2023-04-03T12:37:03;9.90;99.90
29731;DHT22;16639;51.488;0.152;2023-04-03T12:45:23;9.80;99.90
29731;DHT22;16639;51.488;0.152;2023-04-03T12:47:54;9.30;99.90
29731;DHT22;16639;51.488;0.152;2023-04-03T12:50:28;9.80;99.90
29731;DHT22;16639;51.488;0.152;2023-04-03T12:53:01;9.90;99.90
29731;DHT22;16639;51.488;0.152;2023-04-03T12:55:31;9.80;99.90
29731;DHT22;16639;51.488;0.152;2023-04-03T12:58:14;9.80;99.90
29731;DHT22;16639;51.488;0.152;2023-04-03T13:00:42;9.80;99.90
29731;DHT22;16639;51.488;0.152;2023-04-03T13:03:24;9.80;99.90
29731;DHT22;16639;51.488;0.152;2023-04-03T13:06:00;9.90;99.90
29731;DHT22;16639;51.488;0.152;2023-04-03T13:08:29;10.30;99.90
29731;DHT22;16639;51.488;0.152;2023-04-03T13:11:10;9.90;99.90
29731;DHT22;16639;51.488;0.152;2023-04-03T13:13:39;9.90;99.90
29731;DHT22;16639;51.488;0.152;2023-04-03T13:16:11;9.90;99.90
29731;DHT22;16639;51.488;0.152;2023-04-03T13:18:41;10.00;99.90
29731;DHT22;16639;51.488;0.152;2023-04-03T13:21:25;10.00;99.90
29731;DHT22;16639;51.488;0.152;2023-04-03T13:23:59;10.00;99.90
29731;DHT22;16639;51.488;0.152;2023-04-03T13:26:41;10.40;99.90
29731;DHT22;16639;51.488;0.152;2023-04-03T13:29:31;10.40;99.90
29731;DHT22;16639;51.488;0.152;2023-04-03T13:31:59;9.90;99.90
29731;DHT22;16639;51.488;0.152;2023-04-03T13:34:46;10.00;99.90
29731;DHT22;16639;51.488;0.152;2023-04-03T13:37:26;10.00;99.90
29731;DHT22;16639;51.488;0.152;2023-04-03T13:40:00;10.00;99.90
29731;DHT22;16639;51.488;0.152;2023-04-03T13:42:33;10.00;99.90
29731;DHT22;16639;51.488;0.152;2023-04-03T13:45:18;10.00;99.90
29731;DHT22;16639;51.488;0.152;2023-04-03T13:47:48;10.00;99.90
29731;DHT22;16639;51.488;0.152;2023-04-03T13:50:22;10.10;99.90
29731;DHT22;16639;51.488;0.152;2023-04-03T13:53:02;10.00;99.90
29731;DHT22;16639;51.488;0.152;2023-04-03T13:55:35;10.00;99.90
29731;DHT22;16639;51.488;0.152;2023-04-03T14:01:11;10.10;99.90
29731;DHT22;16639;51.488;0.152;2023-04-03T14:06:23;10.10;99.90
29731;DHT22;16639;51.488;0.152;2023-04-03T14:08:51;10.10;99.90
29731;DHT22;16639;51.488;0.152;2023-04-03T14:11:22;10.10;99.90
29731;DHT22;16639;51.488;0.152;2023-04-03T14:13:51;10.10;99.90
29731;DHT22;16639;51.488;0.152;2023-04-03T14:16:21;10.10;99.90
29731;DHT22;16639;51.488;0.152;2023-04-03T14:18:50;10.10;99.90
29731;DHT22;16639;51.488;0.152;2023-04-03T14:21:20;10.10;99.90
29731;DHT22;16639;51.488;0.152;2023-04-03T14:23:49;10.10;99.90
29731;DHT22;16639;51.488;0.152;2023-04-03T14:26:22;10.10;99.90
29731;DHT22;16639;51.488;0.152;2023-04-03T14:28:52;10.20;99.90
29731;DHT22;16639;51.488;0.152;2023-04-03T14:31:21;10.10;99.90
29731;DHT22;16639;51.488;0.152;2023-04-03T14:33:49;10.20;99.90
29731;DHT22;16639;51.488;0.152;2023-04-03T14:36:20;10.20;99.90
29731;DHT22;16639;51.488;0.152;2023-04-03T14:38:49;10.20;99.90
29731;DHT22;16639;51.488;0.152;2023-04-03T14:41:20;10.20;99.90
29731;DHT22;16639;51.488;0.152;2023-04-03T14:43:50;10.20;99.90
29731;DHT22;16639;51.488;0.152;2023-04-03T14:46:22;10.30;99.90
29731;DHT22;16639;51.488;0.152;2023-04-03T14:48:55;10.30;99.90
29731;DHT22;16639;51.488;0.152;2023-04-03T14:51:23;10.20;99.90
29731;DHT22;16639;51.488;0.152;2023-04-03T14:53:50;10.30;99.90
29731;DHT22;16639;51.488;0.152;2023-04-03T14:56:23;10.30;99.90
29731;DHT22;16639;51.488;0.152;2023-04-03T14:58:58;10.20;99.90
29731;DHT22;16639;51.488;0.152;2023-04-03T15:01:28;10.30;99.90
29731;DHT22;16639;51.488;0.152;2023-04-03T15:03:55;10.30;99.90
29731;DHT22;16639;51.488;0.152;2023-04-03T15:06:24;10.30;99.90
29731;DHT22;16639;51.488;0.152;2023-04-03T15:08:53;10.30;99.90
29731;DHT22;16639;51.488;0.152;2023-04-03T15:11:20;10.70;99.90
29731;DHT22;16639;51.488;0.152;2023-04-03T15:13:48;10.30;99.90
29731;DHT22;16639;51.488;0.152;2023-04-03T15:16:17;10.40;99.90
29731;DHT22;16639;51.488;0.152;2023-04-03T15:18:46;10.40;99.90
29731;DHT22;16639;51.488;0.152;2023-04-03T15:21:15;10.40;99.90
29731;DHT22;16639;51.488;0.152;2023-04-03T15:23:42;10.40;99.90
29731;DHT22;16639;51.488;0.152;2023-04-03T15:26:10;10.40;99.90
29731;DHT22;16639;51.488;0.152;2023-04-03T15:28:39;10.90;99.90
29731;DHT22;16639;51.488;0.152;2023-04-03T15:31:08;10.30;99.90
29731;DHT22;16639;51.488;0.152;2023-04-03T15:33:36;10.30;99.90
29731;DHT22;16639;51.488;0.152;2023-04-03T15:36:04;11.40;99.90
29731;DHT22;16639;51.488;0.152;2023-04-03T15:38:43;10.30;99.90
29731;DHT22;16639;51.488;0.152;2023-04-03T15:41:10;10.30;99.90
29731;DHT22;16639;51.488;0.152;2023-04-03T15:43:37;10.30;99.90
29731;DHT22;16639;51.488;0.152;2023-04-03T15:46:05;11.60;99.90
29731;DHT22;16639;51.488;0.152;2023-04-03T15:48:32;10.30;99.90
29731;DHT22;16639;51.488;0.152;2023-04-03T15:51:10;10.40;99.90
29731;DHT22;16639;51.488;0.152;2023-04-03T15:53:45;10.40;99.90
29731;DHT22;16639;51.488;0.152;2023-04-03T15:56:12;10.40;99.90
29731;DHT22;16639;51.488;0.152;2023-04-03T15:58:40;10.40;99.90
29731;DHT22;16639;51.488;0.152;2023-04-03T16:01:09;10.30;99.90
29731;DHT22;16639;51.488;0.152;2023-04-03T16:03:41;10.90;99.90
29731;DHT22;16639;51.488;0.152;2023-04-03T16:06:14;9.90;99.90
29731;DHT22;16639;51.488;0.152;2023-04-03T16:08:42;10.30;99.90
29731;DHT22;16639;51.488;0.152;2023-04-03T16:11:09;10.30;99.90
29731;DHT22;16639;51.488;0.152;2023-04-03T16:13:38;10.40;99.90
29731;DHT22;16639;51.488;0.152;2023-04-03T16:16:06;10.20;99.90
29731;DHT22;16639;51.488;0.152;2023-04-03T16:18:34;10.20;99.90
29731;DHT22;16639;51.488;0.152;2023-04-03T16:21:03;10.30;99.90
29731;DHT22;16639;51.488;0.152;2023-04-03T16:23:30;9.90;99.90
29731;DHT22;16639;51.488;0.152;2023-04-03T16:25:57;10.30;99.90
29731;DHT22;16639;51.488;0.152;2023-04-03T16:28:25;10.20;99.90
29731;DHT22;16639;51.488;0.152;2023-04-03T16:30:53;10.20;99.90
29731;DHT22;16639;51.488;0.152;2023-04-03T16:33:20;10.20;99.90
29731;DHT22;16639;51.488;0.152;2023-04-03T16:35:49;10.10;99.90
29731;DHT22;16639;51.488;0.152;2023-04-03T16:38:18;10.10;99.90
29731;DHT22;16639;51.488;0.152;2023-04-03T16:40:49;10.10;99.90
29731;DHT22;16639;51.488;0.152;2023-04-03T16:43:16;10.10;99.90
29731;DHT22;16639;51.488;0.152;2023-04-03T16:45:44;10.10;99.90
29731;DHT22;16639;51.488;0.152;2023-04-03T16:48:12;10.00;99.90
29731;DHT22;16639;51.488;0.152;2023-04-03T16:50:41;10.00;99.90
29731;DHT22;16639;51.488;0.152;2023-04-03T16:53:08;10.20;99.90
29731;DHT22;16639;51.488;0.152;2023-04-03T16:55:36;10.00;99.90
29731;DHT22;16639;51.488;0.152;2023-04-03T16:58:04;10.00;99.90
29731;DHT22;16639;51.488;0.152;2023-04-03T17:00:32;9.90;99.90
29731;DHT22;16639;51.488;0.152;2023-04-03T17:03:01;10.00;99.90
29731;DHT22;16639;51.488;0.152;2023-04-03T17:05:28;9.90;99.90
29731;DHT22;16639;51.488;0.152;2023-04-03T17:07:55;10.00;99.90
29731;DHT22;16639;51.488;0.152;2023-04-03T17:10:24;9.70;99.90
29731;DHT22;16639;51.488;0.152;2023-04-03T17:12:51;9.90;99.90
29731;DHT22;16639;51.488;0.152;2023-04-03T17:15:19;9.90;99.90
29731;DHT22;16639;51.488;0.152;2023-04-03T17:17:48;9.80;99.90
29731;DHT22;16639;51.488;0.152;2023-04-03T17:20:16;9.80;99.90
29731;DHT22;16639;51.488;0.152;2023-04-03T17:22:43;9.90;99.90